Terminal Aerodrome Forecast
Issued by NWS

Home | Current Version | Previous Version | Text Only | Print | Product List | Glossary On
Versions: 1 2 3 4 5 6 7 8 9 10 11 12 13 14 15 16 17 18 19
000
FTAK31 PAJN 300535
TAFAJN
TAF
PAJN 300535Z 3006/3106 VRB05KT P6SM VCSH FEW005 BKN040 OVC050
     FM301600 08007KT P6SM -SHRA SCT020 OVC035
     FM302000 12010KT P6SM -SHRA SCT030 OVC050
     FM310300 10012KT P6SM -SHRA BKN025 OVC040=

USA.gov is the U.S. government's official web portal to all federal, state and local government web resources and services.